sensor_id;sensor_type;location;lat;lon;timestamp;P1;durP1;ratioP1;P2;durP2;ratioP2
44987;SDS011;35735;52.226;21.254;2022-07-29T00:03:17;8.85;;;5.05;;
44987;SDS011;35735;52.226;21.254;2022-07-29T00:08:17;6.87;;;4.62;;
44987;SDS011;35735;52.226;21.254;2022-07-29T00:13:18;9.90;;;4.50;;
44987;SDS011;35735;52.226;21.254;2022-07-29T00:18:18;8.40;;;4.50;;
44987;SDS011;35735;52.226;21.254;2022-07-29T00:23:19;7.28;;;3.83;;
44987;SDS011;35735;52.226;21.254;2022-07-29T00:28:19;7.85;;;3.90;;
44987;SDS011;35735;52.226;21.254;2022-07-29T00:33:20;6.85;;;3.85;;
44987;SDS011;35735;52.226;21.254;2022-07-29T00:38:21;8.90;;;3.83;;
44987;SDS011;35735;52.226;21.254;2022-07-29T00:43:21;5.87;;;3.60;;
44987;SDS011;35735;52.226;21.254;2022-07-29T00:48:22;5.95;;;3.53;;
44987;SDS011;35735;52.226;21.254;2022-07-29T00:53:22;7.85;;;3.50;;
44987;SDS011;35735;52.226;21.254;2022-07-29T00:58:24;8.07;;;3.70;;
44987;SDS011;35735;52.226;21.254;2022-07-29T01:03:25;5.70;;;3.75;;
44987;SDS011;35735;52.226;21.254;2022-07-29T01:08:25;6.20;;;3.35;;
44987;SDS011;35735;52.226;21.254;2022-07-29T01:13:26;5.87;;;3.67;;
44987;SDS011;35735;52.226;21.254;2022-07-29T01:18:31;4.70;;;3.50;;
44987;SDS011;35735;52.226;21.254;2022-07-29T01:40:02;7.12;;;3.20;;
44987;SDS011;35735;52.226;21.254;2022-07-29T01:45:06;6.68;;;3.28;;
44987;SDS011;35735;52.226;21.254;2022-07-29T01:56:08;8.25;;;3.42;;
44987;SDS011;35735;52.226;21.254;2022-07-29T02:01:09;5.90;;;3.17;;
44987;SDS011;35735;52.226;21.254;2022-07-29T02:06:12;5.87;;;3.25;;
44987;SDS011;35735;52.226;21.254;2022-07-29T02:11:16;4.62;;;3.03;;
44987;SDS011;35735;52.226;21.254;2022-07-29T02:16:17;6.57;;;2.92;;
44987;SDS011;35735;52.226;21.254;2022-07-29T02:21:23;6.30;;;3.10;;
44987;SDS011;35735;52.226;21.254;2022-07-29T02:26:25;10.38;;;3.45;;
44987;SDS011;35735;52.226;21.254;2022-07-29T02:31:28;6.12;;;2.80;;
44987;SDS011;35735;52.226;21.254;2022-07-29T02:36:33;4.50;;;2.70;;
44987;SDS011;35735;52.226;21.254;2022-07-29T02:41:41;7.60;;;3.00;;
44987;SDS011;35735;52.226;21.254;2022-07-29T02:46:50;6.22;;;3.10;;
44987;SDS011;35735;52.226;21.254;2022-07-29T02:52:00;4.72;;;2.53;;
44987;SDS011;35735;52.226;21.254;2022-07-29T02:57:06;4.10;;;2.70;;
44987;SDS011;35735;52.226;21.254;2022-07-29T03:02:15;4.50;;;2.60;;
44987;SDS011;35735;52.226;21.254;2022-07-29T03:07:17;5.00;;;2.60;;
44987;SDS011;35735;52.226;21.254;2022-07-29T03:12:20;3.75;;;2.40;;
44987;SDS011;35735;52.226;21.254;2022-07-29T03:17:20;3.60;;;2.72;;
44987;SDS011;35735;52.226;21.254;2022-07-29T03:22:21;5.90;;;2.67;;
44987;SDS011;35735;52.226;21.254;2022-07-29T03:27:22;3.62;;;2.78;;
44987;SDS011;35735;52.226;21.254;2022-07-29T03:32:23;3.78;;;2.70;;
44987;SDS011;35735;52.226;21.254;2022-07-29T03:37:26;6.10;;;3.00;;
44987;SDS011;35735;52.226;21.254;2022-07-29T03:42:28;11.77;;;3.30;;
44987;SDS011;35735;52.226;21.254;2022-07-29T03:47:32;14.70;;;2.95;;
44987;SDS011;35735;52.226;21.254;2022-07-29T03:52:37;9.40;;;3.12;;
44987;SDS011;35735;52.226;21.254;2022-07-29T03:57:38;5.53;;;2.60;;
44987;SDS011;35735;52.226;21.254;2022-07-29T04:02:39;2.78;;;2.30;;
44987;SDS011;35735;52.226;21.254;2022-07-29T04:07:43;3.28;;;2.42;;
44987;SDS011;35735;52.226;21.254;2022-07-29T04:12:45;3.12;;;2.25;;
44987;SDS011;35735;52.226;21.254;2022-07-29T04:17:45;3.05;;;2.30;;
44987;SDS011;35735;52.226;21.254;2022-07-29T04:22:46;4.37;;;2.30;;
44987;SDS011;35735;52.226;21.254;2022-07-29T04:27:46;4.43;;;2.30;;
44987;SDS011;35735;52.226;21.254;2022-07-29T04:32:47;13.20;;;2.55;;
44987;SDS011;35735;52.226;21.254;2022-07-29T04:37:47;2.90;;;1.90;;
44987;SDS011;35735;52.226;21.254;2022-07-29T04:42:48;4.80;;;2.00;;
44987;SDS011;35735;52.226;21.254;2022-07-29T04:47:49;6.03;;;2.00;;
44987;SDS011;35735;52.226;21.254;2022-07-29T04:52:50;3.53;;;1.80;;
44987;SDS011;35735;52.226;21.254;2022-07-29T04:57:50;9.77;;;1.98;;
44987;SDS011;35735;52.226;21.254;2022-07-29T05:02:51;7.43;;;1.85;;
44987;SDS011;35735;52.226;21.254;2022-07-29T05:07:51;3.58;;;1.35;;
44987;SDS011;35735;52.226;21.254;2022-07-29T05:12:52;5.18;;;1.73;;
44987;SDS011;35735;52.226;21.254;2022-07-29T05:17:53;5.40;;;1.40;;
44987;SDS011;35735;52.226;21.254;2022-07-29T05:22:57;1.75;;;1.30;;
44987;SDS011;35735;52.226;21.254;2022-07-29T05:27:59;2.72;;;1.30;;
44987;SDS011;35735;52.226;21.254;2022-07-29T05:32:59;2.72;;;1.30;;
44987;SDS011;35735;52.226;21.254;2022-07-29T05:38:00;3.08;;;1.30;;
44987;SDS011;35735;52.226;21.254;2022-07-29T05:43:00;1.90;;;1.10;;
44987;SDS011;35735;52.226;21.254;2022-07-29T05:48:01;3.20;;;1.02;;
44987;SDS011;35735;52.226;21.254;2022-07-29T05:53:01;3.20;;;0.90;;
44987;SDS011;35735;52.226;21.254;2022-07-29T05:58:02;2.50;;;1.10;;
44987;SDS011;35735;52.226;21.254;2022-07-29T06:03:02;1.98;;;0.90;;
44987;SDS011;35735;52.226;21.254;2022-07-29T06:08:03;1.15;;;0.80;;
44987;SDS011;35735;52.226;21.254;2022-07-29T06:13:04;2.97;;;1.08;;
44987;SDS011;35735;52.226;21.254;2022-07-29T06:18:05;2.60;;;1.00;;
44987;SDS011;35735;52.226;21.254;2022-07-29T06:23:05;2.33;;;0.90;;
44987;SDS011;35735;52.226;21.254;2022-07-29T06:28:06;2.83;;;0.80;;
44987;SDS011;35735;52.226;21.254;2022-07-29T06:33:07;4.03;;;0.80;;
44987;SDS011;35735;52.226;21.254;2022-07-29T06:38:08;3.83;;;1.00;;
44987;SDS011;35735;52.226;21.254;2022-07-29T06:43:09;2.75;;;0.95;;
44987;SDS011;35735;52.226;21.254;2022-07-29T06:48:09;1.45;;;0.80;;
44987;SDS011;35735;52.226;21.254;2022-07-29T06:53:10;4.82;;;1.00;;
44987;SDS011;35735;52.226;21.254;2022-07-29T06:58:11;3.50;;;0.90;;
44987;SDS011;35735;52.226;21.254;2022-07-29T07:03:11;1.75;;;0.80;;
44987;SDS011;35735;52.226;21.254;2022-07-29T07:08:12;32.35;;;3.15;;
44987;SDS011;35735;52.226;21.254;2022-07-29T07:13:13;5.20;;;0.95;;
44987;SDS011;35735;52.226;21.254;2022-07-29T07:18:14;10.90;;;1.85;;
44987;SDS011;35735;52.226;21.254;2022-07-29T07:23:15;6.30;;;0.82;;
44987;SDS011;35735;52.226;21.254;2022-07-29T07:28:16;5.15;;;0.90;;
44987;SDS011;35735;52.226;21.254;2022-07-29T07:33:16;3.95;;;0.90;;
44987;SDS011;35735;52.226;21.254;2022-07-29T07:38:17;6.85;;;1.08;;
44987;SDS011;35735;52.226;21.254;2022-07-29T07:43:17;3.08;;;1.00;;
44987;SDS011;35735;52.226;21.254;2022-07-29T07:48:18;4.22;;;1.20;;
44987;SDS011;35735;52.226;21.254;2022-07-29T07:53:19;1.90;;;0.80;;
44987;SDS011;35735;52.226;21.254;2022-07-29T07:58:19;2.00;;;0.90;;
44987;SDS011;35735;52.226;21.254;2022-07-29T08:03:20;2.35;;;1.08;;
44987;SDS011;35735;52.226;21.254;2022-07-29T08:08:20;22.30;;;1.95;;
44987;SDS011;35735;52.226;21.254;2022-07-29T08:13:22;6.78;;;1.10;;
44987;SDS011;35735;52.226;21.254;2022-07-29T08:18:28;5.35;;;0.90;;
44987;SDS011;35735;52.226;21.254;2022-07-29T08:23:30;21.12;;;2.35;;
44987;SDS011;35735;52.226;21.254;2022-07-29T08:28:31;4.18;;;1.17;;
44987;SDS011;35735;52.226;21.254;2022-07-29T08:33:32;4.32;;;1.10;;
44987;SDS011;35735;52.226;21.254;2022-07-29T08:38:33;9.55;;;1.52;;
44987;SDS011;35735;52.226;21.254;2022-07-29T08:43:34;2.47;;;0.90;;
44987;SDS011;35735;52.226;21.254;2022-07-29T08:48:35;2.53;;;1.00;;
44987;SDS011;35735;52.226;21.254;2022-07-29T08:53:36;2.70;;;1.10;;
44987;SDS011;35735;52.226;21.254;2022-07-29T08:58:37;2.83;;;0.90;;
44987;SDS011;35735;52.226;21.254;2022-07-29T09:03:38;3.90;;;1.05;;
44987;SDS011;35735;52.226;21.254;2022-07-29T09:08:40;2.47;;;0.90;;
44987;SDS011;35735;52.226;21.254;2022-07-29T09:13:41;10.55;;;1.17;;
44987;SDS011;35735;52.226;21.254;2022-07-29T09:18:42;2.80;;;0.95;;
44987;SDS011;35735;52.226;21.254;2022-07-29T09:24:00;1.73;;;0.90;;
44987;SDS011;35735;52.226;21.254;2022-07-29T09:29:12;3.60;;;0.90;;
44987;SDS011;35735;52.226;21.254;2022-07-29T09:34:16;4.90;;;1.20;;
44987;SDS011;35735;52.226;21.254;2022-07-29T09:39:29;2.25;;;1.00;;
44987;SDS011;35735;52.226;21.254;2022-07-29T09:44:45;3.85;;;1.30;;
44987;SDS011;35735;52.226;21.254;2022-07-29T09:49:52;3.72;;;1.00;;
44987;SDS011;35735;52.226;21.254;2022-07-29T09:55:06;2.50;;;0.90;;
44987;SDS011;35735;52.226;21.254;2022-07-29T10:00:13;3.65;;;1.00;;
44987;SDS011;35735;52.226;21.254;2022-07-29T10:05:20;1.58;;;1.00;;
44987;SDS011;35735;52.226;21.254;2022-07-29T10:10:30;3.47;;;0.95;;
44987;SDS011;35735;52.226;21.254;2022-07-29T10:15:34;2.40;;;0.95;;
44987;SDS011;35735;52.226;21.254;2022-07-29T10:20:37;4.22;;;0.80;;
44987;SDS011;35735;52.226;21.254;2022-07-29T10:25:38;1.35;;;0.90;;
44987;SDS011;35735;52.226;21.254;2022-07-29T10:30:39;5.20;;;1.02;;
44987;SDS011;35735;52.226;21.254;2022-07-29T10:41:09;13.15;;;1.67;;
44987;SDS011;35735;52.226;21.254;2022-07-29T10:46:27;3.37;;;0.90;;
44987;SDS011;35735;52.226;21.254;2022-07-29T10:51:50;6.90;;;1.27;;
44987;SDS011;35735;52.226;21.254;2022-07-29T10:57:10;1.60;;;0.70;;
44987;SDS011;35735;52.226;21.254;2022-07-29T11:07:34;3.30;;;0.80;;
44987;SDS011;35735;52.226;21.254;2022-07-29T11:22:52;1.65;;;0.82;;
44987;SDS011;35735;52.226;21.254;2022-07-29T11:27:54;1.95;;;0.80;;
44987;SDS011;35735;52.226;21.254;2022-07-29T11:33:28;4.43;;;0.82;;
44987;SDS011;35735;52.226;21.254;2022-07-29T11:38:33;5.20;;;1.10;;
44987;SDS011;35735;52.226;21.254;2022-07-29T11:43:45;5.68;;;1.10;;
44987;SDS011;35735;52.226;21.254;2022-07-29T11:48:50;2.97;;;0.90;;
44987;SDS011;35735;52.226;21.254;2022-07-29T11:53:51;4.65;;;0.80;;
44987;SDS011;35735;52.226;21.254;2022-07-29T11:59:05;1.10;;;0.68;;
44987;SDS011;35735;52.226;21.254;2022-07-29T12:04:06;3.35;;;1.02;;
44987;SDS011;35735;52.226;21.254;2022-07-29T12:09:08;5.10;;;1.48;;
44987;SDS011;35735;52.226;21.254;2022-07-29T12:14:09;8.57;;;1.00;;
44987;SDS011;35735;52.226;21.254;2022-07-29T12:19:09;2.85;;;0.90;;
44987;SDS011;35735;52.226;21.254;2022-07-29T12:24:10;4.72;;;1.15;;
44987;SDS011;35735;52.226;21.254;2022-07-29T12:29:15;2.62;;;0.90;;
44987;SDS011;35735;52.226;21.254;2022-07-29T12:34:16;1.50;;;0.88;;
44987;SDS011;35735;52.226;21.254;2022-07-29T12:39:17;2.05;;;1.00;;
44987;SDS011;35735;52.226;21.254;2022-07-29T12:44:18;10.48;;;1.08;;
44987;SDS011;35735;52.226;21.254;2022-07-29T12:49:22;6.35;;;1.33;;
44987;SDS011;35735;52.226;21.254;2022-07-29T12:54:23;6.80;;;1.10;;
44987;SDS011;35735;52.226;21.254;2022-07-29T12:59:23;3.80;;;1.00;;
44987;SDS011;35735;52.226;21.254;2022-07-29T13:04:27;4.93;;;1.52;;
44987;SDS011;35735;52.226;21.254;2022-07-29T13:09:42;1.10;;;0.82;;
44987;SDS011;35735;52.226;21.254;2022-07-29T13:14:45;3.25;;;1.27;;
44987;SDS011;35735;52.226;21.254;2022-07-29T13:19:49;2.97;;;0.80;;
44987;SDS011;35735;52.226;21.254;2022-07-29T13:24:56;3.25;;;1.00;;
44987;SDS011;35735;52.226;21.254;2022-07-29T13:29:59;2.42;;;0.90;;
44987;SDS011;35735;52.226;21.254;2022-07-29T13:35:03;1.37;;;0.90;;
44987;SDS011;35735;52.226;21.254;2022-07-29T13:40:07;3.12;;;0.80;;
44987;SDS011;35735;52.226;21.254;2022-07-29T13:45:09;3.33;;;1.00;;
44987;SDS011;35735;52.226;21.254;2022-07-29T13:50:11;2.97;;;1.00;;
44987;SDS011;35735;52.226;21.254;2022-07-29T13:55:11;5.70;;;1.20;;
44987;SDS011;35735;52.226;21.254;2022-07-29T14:00:12;3.92;;;1.12;;
44987;SDS011;35735;52.226;21.254;2022-07-29T14:05:13;14.07;;;1.95;;
44987;SDS011;35735;52.226;21.254;2022-07-29T14:10:14;3.03;;;0.90;;
44987;SDS011;35735;52.226;21.254;2022-07-29T14:15:14;5.37;;;1.00;;
44987;SDS011;35735;52.226;21.254;2022-07-29T14:20:15;3.17;;;0.90;;
44987;SDS011;35735;52.226;21.254;2022-07-29T14:25:15;1.25;;;1.05;;
44987;SDS011;35735;52.226;21.254;2022-07-29T14:30:16;2.03;;;0.95;;
44987;SDS011;35735;52.226;21.254;2022-07-29T14:35:17;4.45;;;1.10;;
44987;SDS011;35735;52.226;21.254;2022-07-29T14:40:17;6.07;;;1.10;;
44987;SDS011;35735;52.226;21.254;2022-07-29T14:45:18;3.17;;;0.98;;
44987;SDS011;35735;52.226;21.254;2022-07-29T14:50:18;1.60;;;0.90;;
44987;SDS011;35735;52.226;21.254;2022-07-29T14:55:19;7.40;;;1.33;;
44987;SDS011;35735;52.226;21.254;2022-07-29T15:00:20;4.85;;;1.30;;
44987;SDS011;35735;52.226;21.254;2022-07-29T15:05:21;3.78;;;0.88;;
44987;SDS011;35735;52.226;21.254;2022-07-29T15:10:22;13.73;;;1.55;;
44987;SDS011;35735;52.226;21.254;2022-07-29T15:15:22;4.15;;;1.10;;
44987;SDS011;35735;52.226;21.254;2022-07-29T15:20:23;2.05;;;0.90;;
44987;SDS011;35735;52.226;21.254;2022-07-29T15:25:24;1.55;;;0.75;;
44987;SDS011;35735;52.226;21.254;2022-07-29T15:30:25;2.53;;;0.82;;
44987;SDS011;35735;52.226;21.254;2022-07-29T15:35:25;5.93;;;1.10;;
44987;SDS011;35735;52.226;21.254;2022-07-29T15:40:26;2.65;;;1.00;;
44987;SDS011;35735;52.226;21.254;2022-07-29T15:45:27;1.58;;;0.98;;
44987;SDS011;35735;52.226;21.254;2022-07-29T15:50:27;4.05;;;1.12;;
44987;SDS011;35735;52.226;21.254;2022-07-29T15:55:28;4.30;;;1.17;;
44987;SDS011;35735;52.226;21.254;2022-07-29T16:00:28;3.90;;;0.80;;
44987;SDS011;35735;52.226;21.254;2022-07-29T16:05:29;3.53;;;1.00;;
44987;SDS011;35735;52.226;21.254;2022-07-29T16:10:30;3.85;;;1.10;;
44987;SDS011;35735;52.226;21.254;2022-07-29T16:15:30;2.15;;;0.90;;
44987;SDS011;35735;52.226;21.254;2022-07-29T16:20:31;2.30;;;0.85;;
44987;SDS011;35735;52.226;21.254;2022-07-29T16:25:31;3.65;;;0.90;;
44987;SDS011;35735;52.226;21.254;2022-07-29T16:30:32;3.15;;;1.10;;
44987;SDS011;35735;52.226;21.254;2022-07-29T16:35:34;5.07;;;1.10;;
44987;SDS011;35735;52.226;21.254;2022-07-29T16:40:34;6.05;;;1.02;;
44987;SDS011;35735;52.226;21.254;2022-07-29T16:45:35;4.22;;;0.90;;
44987;SDS011;35735;52.226;21.254;2022-07-29T16:50:37;4.57;;;1.12;;
44987;SDS011;35735;52.226;21.254;2022-07-29T16:55:38;5.50;;;1.10;;
44987;SDS011;35735;52.226;21.254;2022-07-29T17:00:38;5.57;;;1.10;;
44987;SDS011;35735;52.226;21.254;2022-07-29T17:05:39;2.78;;;0.95;;
44987;SDS011;35735;52.226;21.254;2022-07-29T17:10:39;1.70;;;0.98;;
44987;SDS011;35735;52.226;21.254;2022-07-29T17:15:40;4.62;;;0.93;;
44987;SDS011;35735;52.226;21.254;2022-07-29T17:20:41;2.60;;;1.00;;
44987;SDS011;35735;52.226;21.254;2022-07-29T17:25:41;2.83;;;1.10;;
44987;SDS011;35735;52.226;21.254;2022-07-29T17:30:42;3.50;;;0.90;;
44987;SDS011;35735;52.226;21.254;2022-07-29T17:35:42;2.15;;;1.10;;
44987;SDS011;35735;52.226;21.254;2022-07-29T17:40:43;3.50;;;1.27;;
44987;SDS011;35735;52.226;21.254;2022-07-29T17:45:43;5.43;;;1.92;;
44987;SDS011;35735;52.226;21.254;2022-07-29T17:50:45;6.10;;;2.45;;
44987;SDS011;35735;52.226;21.254;2022-07-29T17:55:46;3.17;;;2.15;;
44987;SDS011;35735;52.226;21.254;2022-07-29T18:00:47;7.65;;;2.00;;
44987;SDS011;35735;52.226;21.254;2022-07-29T18:05:47;7.78;;;2.42;;
44987;SDS011;35735;52.226;21.254;2022-07-29T18:10:48;5.43;;;2.17;;
44987;SDS011;35735;52.226;21.254;2022-07-29T18:15:49;4.00;;;1.62;;
44987;SDS011;35735;52.226;21.254;2022-07-29T18:20:50;3.20;;;1.90;;
44987;SDS011;35735;52.226;21.254;2022-07-29T18:25:50;6.37;;;2.00;;
44987;SDS011;35735;52.226;21.254;2022-07-29T18:30:51;5.37;;;1.70;;
44987;SDS011;35735;52.226;21.254;2022-07-29T18:35:52;5.55;;;1.40;;
44987;SDS011;35735;52.226;21.254;2022-07-29T18:40:52;6.15;;;1.30;;
44987;SDS011;35735;52.226;21.254;2022-07-29T18:45:53;7.70;;;1.55;;
44987;SDS011;35735;52.226;21.254;2022-07-29T18:50:54;3.85;;;1.62;;
44987;SDS011;35735;52.226;21.254;2022-07-29T18:55:54;7.40;;;1.83;;
44987;SDS011;35735;52.226;21.254;2022-07-29T19:00:55;3.78;;;1.83;;
44987;SDS011;35735;52.226;21.254;2022-07-29T19:05:55;3.72;;;1.85;;
44987;SDS011;35735;52.226;21.254;2022-07-29T19:10:56;5.05;;;2.10;;
44987;SDS011;35735;52.226;21.254;2022-07-29T19:15:56;7.70;;;1.85;;
44987;SDS011;35735;52.226;21.254;2022-07-29T19:20:57;4.62;;;1.65;;
44987;SDS011;35735;52.226;21.254;2022-07-29T19:25:57;5.85;;;1.85;;
44987;SDS011;35735;52.226;21.254;2022-07-29T19:30:58;4.55;;;1.83;;
44987;SDS011;35735;52.226;21.254;2022-07-29T19:35:59;4.30;;;1.75;;
44987;SDS011;35735;52.226;21.254;2022-07-29T19:40:59;3.12;;;1.40;;
44987;SDS011;35735;52.226;21.254;2022-07-29T19:46:00;3.25;;;1.83;;
44987;SDS011;35735;52.226;21.254;2022-07-29T19:51:00;6.47;;;1.50;;
44987;SDS011;35735;52.226;21.254;2022-07-29T19:56:01;7.57;;;1.50;;
44987;SDS011;35735;52.226;21.254;2022-07-29T20:01:02;3.05;;;1.30;;
44987;SDS011;35735;52.226;21.254;2022-07-29T20:06:02;4.37;;;1.40;;
44987;SDS011;35735;52.226;21.254;2022-07-29T20:11:03;3.10;;;1.90;;
44987;SDS011;35735;52.226;21.254;2022-07-29T20:16:04;4.20;;;1.48;;
44987;SDS011;35735;52.226;21.254;2022-07-29T20:21:05;5.25;;;1.80;;
44987;SDS011;35735;52.226;21.254;2022-07-29T20:26:05;3.53;;;1.40;;
44987;SDS011;35735;52.226;21.254;2022-07-29T20:31:06;3.53;;;1.60;;
44987;SDS011;35735;52.226;21.254;2022-07-29T20:36:06;3.00;;;1.30;;
44987;SDS011;35735;52.226;21.254;2022-07-29T20:41:07;4.05;;;1.50;;
44987;SDS011;35735;52.226;21.254;2022-07-29T20:46:08;5.72;;;2.00;;
44987;SDS011;35735;52.226;21.254;2022-07-29T20:51:08;4.93;;;1.35;;
44987;SDS011;35735;52.226;21.254;2022-07-29T20:56:09;2.40;;;1.48;;
44987;SDS011;35735;52.226;21.254;2022-07-29T21:01:09;2.00;;;1.40;;
44987;SDS011;35735;52.226;21.254;2022-07-29T21:06:10;2.45;;;1.55;;
44987;SDS011;35735;52.226;21.254;2022-07-29T21:11:11;3.00;;;1.58;;
44987;SDS011;35735;52.226;21.254;2022-07-29T21:16:11;4.12;;;1.35;;
44987;SDS011;35735;52.226;21.254;2022-07-29T21:21:12;2.33;;;1.50;;
44987;SDS011;35735;52.226;21.254;2022-07-29T21:26:14;3.15;;;1.35;;
44987;SDS011;35735;52.226;21.254;2022-07-29T21:31:15;1.80;;;1.37;;
44987;SDS011;35735;52.226;21.254;2022-07-29T21:36:15;4.55;;;1.45;;
44987;SDS011;35735;52.226;21.254;2022-07-29T21:41:16;2.83;;;1.27;;
44987;SDS011;35735;52.226;21.254;2022-07-29T21:46:16;5.07;;;1.67;;
44987;SDS011;35735;52.226;21.254;2022-07-29T21:51:17;2.62;;;1.35;;
44987;SDS011;35735;52.226;21.254;2022-07-29T21:56:18;3.50;;;1.40;;
44987;SDS011;35735;52.226;21.254;2022-07-29T22:01:18;4.68;;;1.60;;
44987;SDS011;35735;52.226;21.254;2022-07-29T22:06:19;2.20;;;1.55;;
44987;SDS011;35735;52.226;21.254;2022-07-29T22:11:19;2.22;;;1.42;;
44987;SDS011;35735;52.226;21.254;2022-07-29T22:16:20;1.98;;;1.27;;
44987;SDS011;35735;52.226;21.254;2022-07-29T22:21:20;2.00;;;1.40;;
44987;SDS011;35735;52.226;21.254;2022-07-29T22:26:21;4.18;;;1.40;;
44987;SDS011;35735;52.226;21.254;2022-07-29T22:31:21;2.30;;;1.60;;
44987;SDS011;35735;52.226;21.254;2022-07-29T22:36:22;4.05;;;1.45;;
44987;SDS011;35735;52.226;21.254;2022-07-29T22:41:23;4.07;;;1.40;;
44987;SDS011;35735;52.226;21.254;2022-07-29T22:46:23;2.70;;;1.60;;
44987;SDS011;35735;52.226;21.254;2022-07-29T22:51:24;3.92;;;1.60;;
44987;SDS011;35735;52.226;21.254;2022-07-29T22:56:24;1.60;;;1.10;;
44987;SDS011;35735;52.226;21.254;2022-07-29T23:01:25;1.92;;;1.30;;
44987;SDS011;35735;52.226;21.254;2022-07-29T23:06:25;2.90;;;1.30;;
44987;SDS011;35735;52.226;21.254;2022-07-29T23:11:26;4.12;;;1.92;;
44987;SDS011;35735;52.226;21.254;2022-07-29T23:16:27;3.30;;;1.17;;
44987;SDS011;35735;52.226;21.254;2022-07-29T23:21:30;2.75;;;1.40;;
44987;SDS011;35735;52.226;21.254;2022-07-29T23:26:30;3.55;;;1.48;;
44987;SDS011;35735;52.226;21.254;2022-07-29T23:31:31;3.72;;;1.50;;
44987;SDS011;35735;52.226;21.254;2022-07-29T23:36:32;2.03;;;1.45;;
44987;SDS011;35735;52.226;21.254;2022-07-29T23:41:32;2.50;;;1.27;;
44987;SDS011;35735;52.226;21.254;2022-07-29T23:46:33;2.92;;;1.60;;
44987;SDS011;35735;52.226;21.254;2022-07-29T23:51:33;4.28;;;1.73;;
44987;SDS011;35735;52.226;21.254;2022-07-29T23:56:34;3.00;;;1.40;;
